createdAt,value
2023-04-29T00:00:55.985Z,26.97
2023-04-29T00:03:28.572Z,27.37
2023-04-29T00:05:59.925Z,28.10
2023-04-29T00:08:31.710Z,27.75
2023-04-29T00:11:03.119Z,28.73
2023-04-29T00:13:34.651Z,26.93
2023-04-29T00:16:06.134Z,29.00
2023-04-29T00:18:38.778Z,28.55
2023-04-29T00:21:10.278Z,28.15
2023-04-29T00:23:41.378Z,28.62
2023-04-29T00:26:13.692Z,27.75
2023-04-29T00:28:45.003Z,28.65
2023-04-29T00:31:16.673Z,28.60
2023-04-29T00:33:47.685Z,27.45
2023-04-29T00:36:18.758Z,29.65
2023-04-29T00:38:52.479Z,27.82
2023-04-29T00:41:24.258Z,27.60
2023-04-29T00:43:55.369Z,26.62
2023-04-29T00:46:26.609Z,27.70
2023-04-29T00:48:58.048Z,27.10
2023-04-29T00:51:29.330Z,25.72
2023-04-29T00:54:00.693Z,27.45
2023-04-29T00:56:34.336Z,25.77
2023-04-29T00:59:07.002Z,37.17
2023-04-29T01:01:38.698Z,27.67
2023-04-29T01:04:10.591Z,26.97
2023-04-29T01:06:53.706Z,37.78
2023-04-29T01:09:42.331Z,30.45
2023-04-29T01:12:26.382Z,30.62
2023-04-29T01:14:59.816Z,28.90
2023-04-29T01:17:33.369Z,26.85
2023-04-29T01:20:06.897Z,28.80
2023-04-29T01:22:38.373Z,27.93
2023-04-29T01:25:11.042Z,29.05
2023-04-29T01:28:02.207Z,28.10
2023-04-29T01:31:02.076Z,27.77
2023-04-29T01:33:50.351Z,27.60
2023-04-29T01:36:38.854Z,30.05
2023-04-29T01:39:17.803Z,26.80
2023-04-29T01:42:07.133Z,28.32
2023-04-29T01:44:40.320Z,26.82
2023-04-29T01:47:13.803Z,27.37
2023-04-29T01:49:46.538Z,27.07
2023-04-29T01:52:17.630Z,27.15
2023-04-29T01:54:49.455Z,27.07
2023-04-29T01:57:20.556Z,27.48
2023-04-29T01:59:51.994Z,28.12
2023-04-29T02:02:24.634Z,26.82
2023-04-29T02:04:57.085Z,28.00
2023-04-29T02:07:28.727Z,26.75
2023-04-29T02:09:59.820Z,28.50
2023-04-29T02:12:30.915Z,28.23
2023-04-29T02:15:02.144Z,27.67
2023-04-29T02:17:33.319Z,28.38
2023-04-29T02:20:04.410Z,28.27
2023-04-29T02:22:36.049Z,27.77
2023-04-29T02:25:08.455Z,27.45
2023-04-29T02:27:39.695Z,25.72
2023-04-29T02:30:11.592Z,27.42
2023-04-29T02:32:42.685Z,27.67
2023-04-29T02:35:13.896Z,26.80
2023-04-29T02:37:49.259Z,27.10
2023-04-29T02:40:20.928Z,26.30
2023-04-29T02:42:52.027Z,26.93
2023-04-29T02:45:23.692Z,26.52
2023-04-29T02:47:54.857Z,28.12
2023-04-29T02:50:26.690Z,26.75
2023-04-29T02:52:57.783Z,31.07
2023-04-29T02:55:29.078Z,27.17
2023-04-29T02:58:00.184Z,26.23
2023-04-29T03:00:31.270Z,25.85
2023-04-29T03:03:03.497Z,24.98
2023-04-29T03:05:35.912Z,25.25
2023-04-29T03:08:07.385Z,25.77
2023-04-29T03:10:39.903Z,25.43
2023-04-29T03:13:11.340Z,25.45
2023-04-29T03:15:44.639Z,26.27
2023-04-29T03:18:15.863Z,25.77
2023-04-29T03:20:46.940Z,24.63
2023-04-29T03:23:18.123Z,23.87
2023-04-29T03:25:49.350Z,25.37
2023-04-29T03:28:20.883Z,24.82
2023-04-29T03:30:52.111Z,24.80
2023-04-29T03:33:23.818Z,25.37
2023-04-29T03:35:55.793Z,24.02
2023-04-29T03:38:28.870Z,23.92
2023-04-29T03:41:00.052Z,21.82
2023-04-29T03:43:31.363Z,26.90
2023-04-29T03:46:02.781Z,21.97
2023-04-29T03:48:34.199Z,23.77
2023-04-29T03:51:05.534Z,23.83
2023-04-29T03:53:41.154Z,20.82
2023-04-29T03:56:12.420Z,21.50
2023-04-29T03:58:43.363Z,20.37
2023-04-29T04:01:14.875Z,21.10
2023-04-29T04:03:46.037Z,21.05
2023-04-29T04:06:18.105Z,20.90
2023-04-29T04:08:49.197Z,22.65
2023-04-29T04:11:21.837Z,19.80
2023-04-29T04:13:53.465Z,21.02
2023-04-29T04:16:24.557Z,23.52
2023-04-29T04:18:55.670Z,24.12
2023-04-29T04:21:26.819Z,20.60
2023-04-29T04:23:57.931Z,20.12
2023-04-29T04:26:29.334Z,19.62
2023-04-29T04:29:00.442Z,19.23
2023-04-29T04:31:32.333Z,22.55
2023-04-29T04:34:03.760Z,18.85
2023-04-29T04:36:36.677Z,17.90
2023-04-29T04:39:08.047Z,19.85
2023-04-29T04:41:39.189Z,21.23
2023-04-29T04:44:10.283Z,18.82
2023-04-29T04:46:41.374Z,18.00
2023-04-29T04:49:12.448Z,23.00
2023-04-29T04:51:45.268Z,18.73
2023-04-29T04:54:16.628Z,20.48
2023-04-29T04:56:47.735Z,19.73
2023-04-29T04:59:18.921Z,19.02
2023-04-29T05:01:50.659Z,19.52
2023-04-29T05:04:21.897Z,18.67
2023-04-29T05:06:53.386Z,19.05
2023-04-29T05:09:24.711Z,18.12
2023-04-29T05:11:57.461Z,18.70
2023-04-29T05:14:29.004Z,19.52
2023-04-29T05:17:03.677Z,20.15
2023-04-29T05:19:35.028Z,18.82
2023-04-29T05:22:06.349Z,18.60
2023-04-29T05:24:37.900Z,19.30
2023-04-29T05:27:09.028Z,19.45
2023-04-29T05:29:40.532Z,18.90
2023-04-29T05:32:11.766Z,18.10
2023-04-29T05:34:42.888Z,18.67
2023-04-29T05:37:19.241Z,18.45
2023-04-29T05:39:50.952Z,19.57
2023-04-29T05:42:24.902Z,19.70
2023-04-29T05:44:55.980Z,21.20
2023-04-29T05:47:27.803Z,21.05
2023-04-29T05:49:59.599Z,19.52
2023-04-29T05:52:30.687Z,18.98
2023-04-29T05:55:02.177Z,18.42
2023-04-29T05:57:33.284Z,18.90
2023-04-29T06:00:05.219Z,18.48
2023-04-29T06:02:39.588Z,18.73
2023-04-29T06:05:10.361Z,18.73
2023-04-29T06:07:42.553Z,20.48
2023-04-29T06:10:14.069Z,19.27
2023-04-29T06:12:45.581Z,18.90
2023-04-29T06:15:16.672Z,17.27
2023-04-29T06:17:48.406Z,19.20
2023-04-29T06:20:19.825Z,17.40
2023-04-29T06:22:50.907Z,18.87
2023-04-29T06:25:22.110Z,18.87
2023-04-29T06:27:53.302Z,17.85
2023-04-29T06:30:24.831Z,17.75
2023-04-29T06:32:55.944Z,17.98
2023-04-29T06:35:27.393Z,18.55
2023-04-29T06:37:58.761Z,16.93
2023-04-29T06:40:30.557Z,17.50
2023-04-29T06:43:02.269Z,16.85
2023-04-29T06:45:33.370Z,17.85
2023-04-29T06:48:04.810Z,17.73
2023-04-29T06:50:36.149Z,17.85
2023-04-29T06:53:07.673Z,17.07
2023-04-29T06:55:44.800Z,15.75
2023-04-29T06:58:17.801Z,18.00
2023-04-29T07:00:51.206Z,17.25
2023-04-29T07:03:22.768Z,17.12
2023-04-29T07:05:55.222Z,17.48
2023-04-29T07:08:26.473Z,18.95
2023-04-29T07:11:01.045Z,17.77
2023-04-29T07:13:32.905Z,16.70
2023-04-29T07:16:04.100Z,18.73
2023-04-29T07:18:35.216Z,18.73
2023-04-29T07:21:06.488Z,19.30
2023-04-29T07:23:37.598Z,18.30
2023-04-29T07:26:17.142Z,19.23
2023-04-29T07:28:51.283Z,19.17
2023-04-29T07:31:23.090Z,18.32
2023-04-29T07:33:54.152Z,18.05
2023-04-29T07:36:25.934Z,17.75
2023-04-29T07:38:57.706Z,17.55
2023-04-29T07:41:29.437Z,18.02
2023-04-29T07:44:00.584Z,18.57
2023-04-29T07:46:31.789Z,18.82
2023-04-29T07:49:02.970Z,19.92
2023-04-29T07:51:34.094Z,20.43
2023-04-29T07:54:05.759Z,19.25
2023-04-29T07:56:37.138Z,18.65
2023-04-29T07:59:08.216Z,19.67
2023-04-29T08:01:39.648Z,18.75
2023-04-29T08:04:11.829Z,18.50
2023-04-29T08:06:46.161Z,19.52
2023-04-29T08:09:20.242Z,19.30
2023-04-29T08:11:51.269Z,19.35
2023-04-29T08:14:22.830Z,18.02
2023-04-29T08:16:57.582Z,18.57
2023-04-29T08:19:28.658Z,18.40
2023-04-29T08:22:10.288Z,18.15
2023-04-29T08:24:42.818Z,19.37
2023-04-29T08:27:13.912Z,19.23
2023-04-29T08:29:45.137Z,17.95
2023-04-29T08:32:16.216Z,17.80
2023-04-29T08:34:47.677Z,18.75
2023-04-29T08:37:31.184Z,17.45
2023-04-29T08:40:03.043Z,18.32
2023-04-29T08:42:36.409Z,19.45
2023-04-29T08:45:08.005Z,19.98
2023-04-29T08:47:40.110Z,19.45
2023-04-29T08:50:17.036Z,20.23
2023-04-29T08:52:48.124Z,19.40
2023-04-29T08:55:19.944Z,20.32
2023-04-29T08:57:52.717Z,19.45
2023-04-29T09:00:24.646Z,20.60
2023-04-29T09:02:58.382Z,19.32
2023-04-29T09:05:30.692Z,18.52
2023-04-29T09:08:04.255Z,19.80
2023-04-29T09:10:35.941Z,19.85
2023-04-29T09:13:07.412Z,19.35
2023-04-29T09:15:45.008Z,20.23
2023-04-29T09:18:20.523Z,19.23
2023-04-29T09:20:51.884Z,19.50
2023-04-29T09:23:27.752Z,19.48
2023-04-29T09:26:00.129Z,19.98
2023-04-29T09:28:31.257Z,19.35
2023-04-29T09:31:03.596Z,19.48
2023-04-29T09:33:41.997Z,18.20
2023-04-29T09:36:14.389Z,19.35
2023-04-29T09:38:59.277Z,19.42
2023-04-29T09:41:30.478Z,19.65
2023-04-29T09:44:15.049Z,20.23
2023-04-29T09:46:46.730Z,18.98
2023-04-29T09:49:27.986Z,19.75
2023-04-29T09:52:01.026Z,19.90
2023-04-29T09:54:33.484Z,21.15
2023-04-29T09:57:06.561Z,20.17
2023-04-29T09:59:39.463Z,19.80
2023-04-29T10:02:19.135Z,19.85
2023-04-29T10:04:52.933Z,19.30
2023-04-29T10:07:24.933Z,20.08
2023-04-29T10:09:56.497Z,20.02
2023-04-29T10:12:28.602Z,20.30
2023-04-29T10:15:15.448Z,23.67
2023-04-29T10:18:04.026Z,28.75
2023-04-29T10:20:35.770Z,28.47
2023-04-29T10:23:07.818Z,24.35
2023-04-29T10:25:40.504Z,20.43
2023-04-29T10:28:15.463Z,21.45
2023-04-29T10:30:48.159Z,22.20
2023-04-29T10:33:20.134Z,22.02
2023-04-29T10:35:52.398Z,23.70
2023-04-29T10:38:35.120Z,22.95
2023-04-29T10:41:08.854Z,24.23
2023-04-29T10:43:44.834Z,25.17
2023-04-29T10:46:29.558Z,24.85
2023-04-29T10:49:08.163Z,25.35
2023-04-29T10:51:44.091Z,24.87
2023-04-29T10:54:22.888Z,24.55
2023-04-29T10:56:55.391Z,23.73
2023-04-29T10:59:40.911Z,23.87
2023-04-29T11:02:13.401Z,23.65
2023-04-29T11:05:03.169Z,22.77
2023-04-29T11:07:34.441Z,23.27
2023-04-29T11:10:06.091Z,25.55
2023-04-29T11:12:37.182Z,25.90
2023-04-29T11:15:11.647Z,24.67
2023-04-29T11:17:42.761Z,26.33
2023-04-29T11:20:16.666Z,26.48
2023-04-29T11:22:50.310Z,26.27
2023-04-29T11:25:21.421Z,25.30
2023-04-29T11:27:53.806Z,26.37
2023-04-29T11:30:26.871Z,24.87
2023-04-29T11:32:59.250Z,24.77
2023-04-29T11:35:30.430Z,24.00
2023-04-29T11:38:02.695Z,22.93
2023-04-29T11:40:35.212Z,23.00
2023-04-29T11:43:06.298Z,23.80
2023-04-29T11:45:41.455Z,21.80
2023-04-29T11:48:13.036Z,20.85
2023-04-29T11:50:45.601Z,20.52
2023-04-29T11:53:16.887Z,19.42
2023-04-29T11:55:49.105Z,17.40
2023-04-29T11:58:28.110Z,17.48
2023-04-29T12:00:59.401Z,17.45
2023-04-29T12:03:30.700Z,17.65
2023-04-29T12:06:04.522Z,16.90
2023-04-29T12:08:36.284Z,17.42
2023-04-29T12:11:09.291Z,16.37
2023-04-29T12:13:40.386Z,17.25
2023-04-29T12:16:11.923Z,17.35
2023-04-29T12:18:43.215Z,17.48
2023-04-29T12:21:14.490Z,16.55
2023-04-29T12:23:46.460Z,15.83
2023-04-29T12:26:18.444Z,17.52
2023-04-29T12:28:50.659Z,16.42
2023-04-29T12:31:22.330Z,17.80
2023-04-29T12:33:56.425Z,16.75
2023-04-29T12:36:28.246Z,16.73
2023-04-29T12:39:00.501Z,15.68
2023-04-29T12:41:45.199Z,16.15
2023-04-29T12:44:16.361Z,16.40
2023-04-29T12:46:47.391Z,17.05
2023-04-29T12:49:20.101Z,17.10
2023-04-29T12:51:51.261Z,16.93
2023-04-29T12:54:23.495Z,19.15
2023-04-29T12:56:55.027Z,15.55
2023-04-29T12:59:26.166Z,16.48
2023-04-29T13:01:57.387Z,17.40
2023-04-29T13:04:28.969Z,16.97
2023-04-29T13:07:01.952Z,17.20
2023-04-29T13:09:33.170Z,16.62
2023-04-29T13:12:04.361Z,16.35
2023-04-29T13:14:35.439Z,15.30
2023-04-29T13:17:06.616Z,15.72
2023-04-29T13:19:50.646Z,15.15
2023-04-29T13:22:09.986Z,14.47
2023-04-29T13:24:41.538Z,14.95
2023-04-29T13:27:12.736Z,13.78
2023-04-29T13:29:44.330Z,14.70
2023-04-29T13:32:16.171Z,15.40
2023-04-29T13:34:48.048Z,14.93
2023-04-29T13:37:19.276Z,13.25
2023-04-29T13:39:56.888Z,13.93
2023-04-29T13:42:26.033Z,14.20
2023-04-29T13:44:56.430Z,14.43
2023-04-29T13:47:30.306Z,14.90
2023-04-29T13:50:39.926Z,14.75
2023-04-29T13:55:59.298Z,14.40
2023-04-29T14:00:37.085Z,15.35
2023-04-29T14:02:46.556Z,13.48
2023-04-29T14:05:17.878Z,14.35
2023-04-29T14:07:49.087Z,15.18
2023-04-29T14:10:20.165Z,14.40
2023-04-29T14:12:51.357Z,15.30
2023-04-29T14:15:22.428Z,14.60
2023-04-29T14:17:54.508Z,14.93
2023-04-29T14:20:25.503Z,14.13
2023-04-29T14:22:56.363Z,15.10
2023-04-29T14:25:28.906Z,14.47
2023-04-29T14:28:00.352Z,13.40
2023-04-29T14:30:33.008Z,13.20
2023-04-29T14:33:04.128Z,13.40
2023-04-29T14:35:35.271Z,12.07
2023-04-29T14:38:06.365Z,12.65
2023-04-29T14:40:37.830Z,12.40
2023-04-29T14:43:08.867Z,11.60
2023-04-29T14:45:39.986Z,12.55
2023-04-29T14:48:11.140Z,11.68
2023-04-29T14:50:42.296Z,11.68
2023-04-29T14:53:13.662Z,11.75
2023-04-29T14:55:44.764Z,11.15
2023-04-29T14:58:15.855Z,11.48
2023-04-29T15:00:50.014Z,10.82
2023-04-29T15:03:22.742Z,11.18
2023-04-29T15:05:54.510Z,15.20
2023-04-29T15:08:25.833Z,11.75
2023-04-29T15:10:56.911Z,11.70
2023-04-29T15:13:29.994Z,11.40
2023-04-29T15:16:00.459Z,10.78
2023-04-29T15:18:31.676Z,10.93
2023-04-29T15:21:02.888Z,11.25
2023-04-29T15:23:34.266Z,10.70
2023-04-29T15:26:05.345Z,10.93
2023-04-29T15:28:36.835Z,11.22
2023-04-29T15:31:08.079Z,10.70
2023-04-29T15:33:39.107Z,10.60
2023-04-29T15:36:10.516Z,11.05
2023-04-29T15:38:41.529Z,10.58
2023-04-29T15:41:12.655Z,11.68
2023-04-29T15:43:43.563Z,11.83
2023-04-29T15:46:14.663Z,11.40
2023-04-29T15:48:45.922Z,11.15
2023-04-29T15:51:17.112Z,12.00
2023-04-29T15:53:49.100Z,10.58
2023-04-29T15:56:20.293Z,11.48
2023-04-29T15:58:51.373Z,11.68
2023-04-29T16:01:22.694Z,11.48
2023-04-29T16:03:53.901Z,11.45
2023-04-29T16:06:25.227Z,11.48
2023-04-29T16:08:57.810Z,13.05
2023-04-29T16:11:28.927Z,11.57
2023-04-29T16:14:00.065Z,12.40
2023-04-29T16:16:31.856Z,13.45
2023-04-29T16:19:02.999Z,40.20
2023-04-29T16:21:35.366Z,14.70
2023-04-29T16:24:06.772Z,14.75
2023-04-29T16:26:38.581Z,13.38
2023-04-29T16:29:11.260Z,13.48
2023-04-29T16:31:42.379Z,11.95
2023-04-29T16:34:13.993Z,11.78
2023-04-29T16:36:45.089Z,11.22
2023-04-29T16:39:16.121Z,11.30
2023-04-29T16:41:47.233Z,11.03
2023-04-29T16:44:18.179Z,11.03
2023-04-29T16:46:49.266Z,11.38
2023-04-29T16:49:22.684Z,11.00
2023-04-29T16:51:53.750Z,10.58
2023-04-29T16:54:25.248Z,10.43
2023-04-29T16:56:56.336Z,9.73
2023-04-29T16:59:27.333Z,10.55
2023-04-29T17:01:58.544Z,9.98
2023-04-29T17:04:29.832Z,10.82
2023-04-29T17:07:02.468Z,10.40
2023-04-29T17:09:34.630Z,10.25
2023-04-29T17:12:07.012Z,10.70
2023-04-29T17:14:40.296Z,11.25
2023-04-29T17:17:10.470Z,11.30
2023-04-29T17:19:41.595Z,10.35
2023-04-29T17:22:12.653Z,10.68
2023-04-29T17:24:45.828Z,10.63
2023-04-29T17:27:16.891Z,10.32
2023-04-29T17:29:48.553Z,8.68
2023-04-29T17:32:20.855Z,8.93
2023-04-29T17:34:53.273Z,9.35
2023-04-29T17:37:25.960Z,8.68
2023-04-29T17:39:57.415Z,8.80
2023-04-29T17:42:29.148Z,8.30
2023-04-29T17:45:00.234Z,8.13
2023-04-29T17:47:31.369Z,9.03
2023-04-29T17:50:02.896Z,8.25
2023-04-29T17:52:34.197Z,8.30
2023-04-29T17:55:05.470Z,7.92
2023-04-29T17:57:37.534Z,7.95
2023-04-29T18:00:09.541Z,7.85
2023-04-29T18:02:40.806Z,8.25
2023-04-29T18:05:12.376Z,7.95
2023-04-29T18:07:43.335Z,8.03
2023-04-29T18:10:14.476Z,8.38
2023-04-29T18:12:45.540Z,8.48
2023-04-29T18:15:17.681Z,8.38
2023-04-29T18:17:48.799Z,9.15
2023-04-29T18:20:20.158Z,8.05
2023-04-29T18:22:51.626Z,8.68
2023-04-29T18:25:22.833Z,7.87
2023-04-29T18:27:59.758Z,8.43
2023-04-29T18:30:26.449Z,8.68
2023-04-29T18:32:58.086Z,9.40
2023-04-29T18:35:29.298Z,9.08
2023-04-29T18:38:00.290Z,9.28
2023-04-29T18:40:31.415Z,10.03
2023-04-29T18:43:03.094Z,9.45
2023-04-29T18:45:34.160Z,9.33
2023-04-29T18:51:01.438Z,9.30
2023-04-29T18:53:33.193Z,10.25
2023-04-29T18:56:10.420Z,9.90
2023-04-29T18:58:41.467Z,10.90
2023-04-29T19:01:12.606Z,10.23
2023-04-29T19:03:43.907Z,10.32
2023-04-29T19:06:15.038Z,10.88
2023-04-29T19:08:46.177Z,10.60
2023-04-29T19:11:17.146Z,11.38
2023-04-29T19:13:48.368Z,10.90
2023-04-29T19:16:30.567Z,11.20
2023-04-29T19:19:01.800Z,11.12
2023-04-29T19:21:34.069Z,11.03
2023-04-29T19:24:05.138Z,10.82
2023-04-29T19:26:36.873Z,10.48
2023-04-29T19:29:08.613Z,11.20
2023-04-29T19:31:40.351Z,10.85
2023-04-29T19:34:11.882Z,10.98
2023-04-29T19:36:43.281Z,10.60
2023-04-29T19:39:25.920Z,11.70
2023-04-29T19:42:03.264Z,11.50
2023-04-29T19:44:33.872Z,11.35
2023-04-29T19:47:04.998Z,10.68
2023-04-29T19:49:36.248Z,11.12
2023-04-29T19:52:08.503Z,11.20
2023-04-29T19:54:40.951Z,11.30
2023-04-29T19:57:12.047Z,11.80
2023-04-29T19:59:46.325Z,10.72
2023-04-29T20:02:17.606Z,10.68
2023-04-29T20:04:49.428Z,10.60
2023-04-29T20:07:20.480Z,11.57
2023-04-29T20:09:51.808Z,10.88
2023-04-29T20:12:23.394Z,11.63
2023-04-29T20:14:54.508Z,12.35
2023-04-29T20:17:25.703Z,11.63
2023-04-29T20:20:00.109Z,11.53
2023-04-29T20:22:31.314Z,10.85
2023-04-29T20:25:02.406Z,11.43
2023-04-29T20:27:33.476Z,11.10
2023-04-29T20:30:04.563Z,11.05
2023-04-29T20:32:35.675Z,12.20
2023-04-29T20:35:06.907Z,12.90
2023-04-29T20:37:38.384Z,12.03
2023-04-29T20:40:10.872Z,11.85
2023-04-29T20:42:44.344Z,12.13
2023-04-29T20:45:15.705Z,12.28
2023-04-29T20:50:36.017Z,12.37
2023-04-29T20:56:04.370Z,13.15
2023-04-29T20:58:38.944Z,12.82
2023-04-29T21:01:16.977Z,12.82
2023-04-29T21:03:48.148Z,12.37
2023-04-29T21:06:19.251Z,12.28
2023-04-29T21:08:50.374Z,12.15
2023-04-29T21:11:21.438Z,12.85
2023-04-29T21:13:52.806Z,11.95
2023-04-29T21:16:24.023Z,12.63
2023-04-29T21:18:55.275Z,12.55
2023-04-29T21:21:27.533Z,11.80
2023-04-29T21:23:58.629Z,12.88
2023-04-29T21:26:29.720Z,12.60
2023-04-29T21:29:00.804Z,11.90
2023-04-29T21:31:33.276Z,12.73
2023-04-29T21:34:04.328Z,13.50
2023-04-29T21:36:35.431Z,12.40
2023-04-29T21:39:07.755Z,12.35
2023-04-29T21:47:10.327Z,12.85
2023-04-29T21:49:47.637Z,12.55
2023-04-29T21:52:19.209Z,12.23
2023-04-29T21:55:01.637Z,13.62
2023-04-29T21:57:43.764Z,12.50
2023-04-29T22:00:14.284Z,12.73
2023-04-29T22:02:45.185Z,13.20
2023-04-29T22:05:16.230Z,13.38
2023-04-29T22:07:47.352Z,12.00
2023-04-29T22:10:18.447Z,12.95
2023-04-29T22:12:49.550Z,12.40
2023-04-29T22:15:28.302Z,12.80
2023-04-29T22:17:53.261Z,12.40
2023-04-29T22:20:30.210Z,12.63
2023-04-29T22:23:01.545Z,13.20
2023-04-29T22:31:17.823Z,11.83
2023-04-29T22:33:48.842Z,13.25
2023-04-29T22:36:20.036Z,12.20
2023-04-29T22:38:51.133Z,12.90
2023-04-29T22:41:22.859Z,12.90
2023-04-29T22:43:55.249Z,12.15
2023-04-29T22:46:26.987Z,12.63
2023-04-29T22:49:11.767Z,12.43
2023-04-29T22:51:43.013Z,13.22
2023-04-29T22:54:14.174Z,12.98
2023-04-29T22:56:45.259Z,13.55
2023-04-29T22:59:16.613Z,13.10
2023-04-29T23:01:47.968Z,18.90
2023-04-29T23:07:11.481Z,13.22
2023-04-29T23:09:46.428Z,12.15
2023-04-29T23:12:17.122Z,12.45
2023-04-29T23:14:51.825Z,13.08
2023-04-29T23:17:22.826Z,13.10
2023-04-29T23:19:54.557Z,12.88
2023-04-29T23:22:25.747Z,13.40
2023-04-29T23:24:56.844Z,13.70
2023-04-29T23:27:28.073Z,13.65
2023-04-29T23:33:00.948Z,12.60
2023-04-29T23:35:32.979Z,13.20
2023-04-29T23:38:04.033Z,13.22
2023-04-29T23:40:35.483Z,12.98
2023-04-29T23:43:06.540Z,13.22
2023-04-29T23:45:37.589Z,13.18
2023-04-29T23:48:08.946Z,13.35
2023-04-29T23:50:50.230Z,13.00
2023-04-29T23:53:24.048Z,12.75
2023-04-29T23:55:55.096Z,12.98
2023-04-29T23:58:26.209Z,13.58
